sensor_id;sensor_type;location;lat;lon;timestamp;P1;durP1;ratioP1;P2;durP2;ratioP2
4636;SDS011;2331;48.806;9.140;2023-07-24T00:01:38;14.40;;;7.93;;
4636;SDS011;2331;48.806;9.140;2023-07-24T00:04:05;12.37;;;7.47;;
4636;SDS011;2331;48.806;9.140;2023-07-24T00:06:33;12.27;;;7.33;;
4636;SDS011;2331;48.806;9.140;2023-07-24T00:09:00;13.30;;;7.33;;
4636;SDS011;2331;48.806;9.140;2023-07-24T00:11:26;14.33;;;8.60;;
4636;SDS011;2331;48.806;9.140;2023-07-24T00:13:53;13.27;;;7.33;;
4636;SDS011;2331;48.806;9.140;2023-07-24T00:16:20;13.57;;;7.30;;
4636;SDS011;2331;48.806;9.140;2023-07-24T00:18:47;22.90;;;10.27;;
4636;SDS011;2331;48.806;9.140;2023-07-24T00:21:13;18.83;;;9.60;;
4636;SDS011;2331;48.806;9.140;2023-07-24T00:23:41;16.30;;;8.57;;
4636;SDS011;2331;48.806;9.140;2023-07-24T00:26:08;14.60;;;8.10;;
4636;SDS011;2331;48.806;9.140;2023-07-24T00:28:35;16.07;;;9.10;;
4636;SDS011;2331;48.806;9.140;2023-07-24T00:31:01;14.70;;;8.67;;
4636;SDS011;2331;48.806;9.140;2023-07-24T00:33:28;15.13;;;8.27;;
4636;SDS011;2331;48.806;9.140;2023-07-24T00:35:55;11.87;;;7.60;;
4636;SDS011;2331;48.806;9.140;2023-07-24T00:38:23;13.27;;;7.93;;
4636;SDS011;2331;48.806;9.140;2023-07-24T00:40:51;17.33;;;9.93;;
4636;SDS011;2331;48.806;9.140;2023-07-24T00:43:18;12.47;;;8.20;;
4636;SDS011;2331;48.806;9.140;2023-07-24T00:45:44;13.30;;;8.03;;
4636;SDS011;2331;48.806;9.140;2023-07-24T00:48:13;13.57;;;7.70;;
4636;SDS011;2331;48.806;9.140;2023-07-24T00:50:41;14.63;;;8.33;;
4636;SDS011;2331;48.806;9.140;2023-07-24T00:53:08;12.60;;;7.40;;
4636;SDS011;2331;48.806;9.140;2023-07-24T00:55:37;11.70;;;7.53;;
4636;SDS011;2331;48.806;9.140;2023-07-24T00:58:06;15.30;;;8.53;;
4636;SDS011;2331;48.806;9.140;2023-07-24T01:00:33;12.20;;;7.73;;
4636;SDS011;2331;48.806;9.140;2023-07-24T01:03:00;13.80;;;7.60;;
4636;SDS011;2331;48.806;9.140;2023-07-24T01:05:26;16.63;;;8.50;;
4636;SDS011;2331;48.806;9.140;2023-07-24T01:07:53;13.30;;;7.60;;
4636;SDS011;2331;48.806;9.140;2023-07-24T01:10:20;13.30;;;7.53;;
4636;SDS011;2331;48.806;9.140;2023-07-24T01:12:50;14.50;;;7.50;;
4636;SDS011;2331;48.806;9.140;2023-07-24T01:15:26;14.03;;;7.83;;
4636;SDS011;2331;48.806;9.140;2023-07-24T01:17:59;16.87;;;8.70;;
4636;SDS011;2331;48.806;9.140;2023-07-24T01:20:28;14.60;;;8.00;;
4636;SDS011;2331;48.806;9.140;2023-07-24T01:23:11;13.30;;;8.43;;
4636;SDS011;2331;48.806;9.140;2023-07-24T01:25:49;13.53;;;7.73;;
4636;SDS011;2331;48.806;9.140;2023-07-24T01:28:19;14.10;;;8.70;;
4636;SDS011;2331;48.806;9.140;2023-07-24T01:30:46;12.20;;;7.40;;
4636;SDS011;2331;48.806;9.140;2023-07-24T01:33:13;13.13;;;7.83;;
4636;SDS011;2331;48.806;9.140;2023-07-24T01:35:40;12.90;;;8.80;;
4636;SDS011;2331;48.806;9.140;2023-07-24T01:38:09;15.00;;;8.80;;
4636;SDS011;2331;48.806;9.140;2023-07-24T01:40:38;18.30;;;8.23;;
4636;SDS011;2331;48.806;9.140;2023-07-24T01:43:06;11.73;;;7.40;;
4636;SDS011;2331;48.806;9.140;2023-07-24T01:45:33;12.17;;;7.90;;
4636;SDS011;2331;48.806;9.140;2023-07-24T01:48:00;13.10;;;7.80;;
4636;SDS011;2331;48.806;9.140;2023-07-24T01:50:27;13.57;;;8.10;;
4636;SDS011;2331;48.806;9.140;2023-07-24T01:52:54;12.47;;;7.60;;
4636;SDS011;2331;48.806;9.140;2023-07-24T01:55:21;12.87;;;7.67;;
4636;SDS011;2331;48.806;9.140;2023-07-24T01:57:48;13.73;;;7.77;;
4636;SDS011;2331;48.806;9.140;2023-07-24T02:00:16;12.37;;;7.50;;
4636;SDS011;2331;48.806;9.140;2023-07-24T02:02:42;11.67;;;7.43;;
4636;SDS011;2331;48.806;9.140;2023-07-24T02:05:09;15.00;;;8.27;;
4636;SDS011;2331;48.806;9.140;2023-07-24T02:07:36;11.93;;;7.10;;
4636;SDS011;2331;48.806;9.140;2023-07-24T02:10:03;11.37;;;6.93;;
4636;SDS011;2331;48.806;9.140;2023-07-24T02:12:30;15.00;;;8.20;;
4636;SDS011;2331;48.806;9.140;2023-07-24T02:14:56;12.40;;;7.67;;
4636;SDS011;2331;48.806;9.140;2023-07-24T02:17:26;14.33;;;7.77;;
4636;SDS011;2331;48.806;9.140;2023-07-24T02:19:52;12.07;;;7.87;;
4636;SDS011;2331;48.806;9.140;2023-07-24T02:22:19;14.77;;;8.37;;
4636;SDS011;2331;48.806;9.140;2023-07-24T02:24:46;12.83;;;7.73;;
4636;SDS011;2331;48.806;9.140;2023-07-24T02:27:13;13.30;;;8.13;;
4636;SDS011;2331;48.806;9.140;2023-07-24T02:29:50;14.07;;;8.27;;
4636;SDS011;2331;48.806;9.140;2023-07-24T02:32:17;14.27;;;8.10;;
4636;SDS011;2331;48.806;9.140;2023-07-24T02:34:47;13.23;;;7.53;;
4636;SDS011;2331;48.806;9.140;2023-07-24T02:37:15;13.60;;;7.93;;
4636;SDS011;2331;48.806;9.140;2023-07-24T02:39:41;13.70;;;8.43;;
4636;SDS011;2331;48.806;9.140;2023-07-24T02:42:08;13.87;;;8.80;;
4636;SDS011;2331;48.806;9.140;2023-07-24T02:44:35;14.33;;;7.70;;
4636;SDS011;2331;48.806;9.140;2023-07-24T02:47:02;13.70;;;7.97;;
4636;SDS011;2331;48.806;9.140;2023-07-24T02:49:29;12.13;;;7.87;;
4636;SDS011;2331;48.806;9.140;2023-07-24T02:51:57;15.37;;;8.70;;
4636;SDS011;2331;48.806;9.140;2023-07-24T02:54:25;12.90;;;7.90;;
4636;SDS011;2331;48.806;9.140;2023-07-24T02:56:51;12.77;;;7.93;;
4636;SDS011;2331;48.806;9.140;2023-07-24T02:59:18;11.43;;;7.63;;
4636;SDS011;2331;48.806;9.140;2023-07-24T03:01:45;11.57;;;7.53;;
4636;SDS011;2331;48.806;9.140;2023-07-24T03:04:11;13.20;;;7.90;;
4636;SDS011;2331;48.806;9.140;2023-07-24T03:06:38;12.13;;;7.87;;
4636;SDS011;2331;48.806;9.140;2023-07-24T03:09:07;15.00;;;7.70;;
4636;SDS011;2331;48.806;9.140;2023-07-24T03:11:33;13.20;;;7.63;;
4636;SDS011;2331;48.806;9.140;2023-07-24T03:14:00;13.17;;;8.30;;
4636;SDS011;2331;48.806;9.140;2023-07-24T03:16:27;12.30;;;8.10;;
4636;SDS011;2331;48.806;9.140;2023-07-24T03:18:53;13.50;;;7.47;;
4636;SDS011;2331;48.806;9.140;2023-07-24T03:21:20;15.33;;;8.77;;
4636;SDS011;2331;48.806;9.140;2023-07-24T03:23:47;11.50;;;6.90;;
4636;SDS011;2331;48.806;9.140;2023-07-24T03:26:15;15.20;;;7.53;;
4636;SDS011;2331;48.806;9.140;2023-07-24T03:28:42;14.33;;;8.40;;
4636;SDS011;2331;48.806;9.140;2023-07-24T03:31:08;13.80;;;7.57;;
4636;SDS011;2331;48.806;9.140;2023-07-24T03:33:35;13.17;;;7.33;;
4636;SDS011;2331;48.806;9.140;2023-07-24T03:36:02;11.63;;;7.50;;
4636;SDS011;2331;48.806;9.140;2023-07-24T03:38:29;13.03;;;7.63;;
4636;SDS011;2331;48.806;9.140;2023-07-24T03:40:56;13.25;;;7.68;;
4636;SDS011;2331;48.806;9.140;2023-07-24T03:43:24;12.97;;;7.77;;
4636;SDS011;2331;48.806;9.140;2023-07-24T03:45:51;13.13;;;7.50;;
4636;SDS011;2331;48.806;9.140;2023-07-24T03:48:17;10.13;;;6.80;;
4636;SDS011;2331;48.806;9.140;2023-07-24T03:50:44;13.57;;;7.30;;
4636;SDS011;2331;48.806;9.140;2023-07-24T03:53:11;12.77;;;7.27;;
4636;SDS011;2331;48.806;9.140;2023-07-24T03:55:38;12.00;;;6.90;;
4636;SDS011;2331;48.806;9.140;2023-07-24T03:58:04;10.73;;;7.10;;
4636;SDS011;2331;48.806;9.140;2023-07-24T04:00:32;12.73;;;7.30;;
4636;SDS011;2331;48.806;9.140;2023-07-24T04:02:59;16.30;;;7.60;;
4636;SDS011;2331;48.806;9.140;2023-07-24T04:05:26;12.10;;;7.30;;
4636;SDS011;2331;48.806;9.140;2023-07-24T04:07:53;13.27;;;7.67;;
4636;SDS011;2331;48.806;9.140;2023-07-24T04:10:20;13.60;;;8.07;;
4636;SDS011;2331;48.806;9.140;2023-07-24T04:12:47;12.80;;;6.97;;
4636;SDS011;2331;48.806;9.140;2023-07-24T04:15:14;10.83;;;6.93;;
4636;SDS011;2331;48.806;9.140;2023-07-24T04:17:42;13.33;;;7.50;;
4636;SDS011;2331;48.806;9.140;2023-07-24T04:20:09;13.03;;;7.53;;
4636;SDS011;2331;48.806;9.140;2023-07-24T04:22:36;11.38;;;6.90;;
4636;SDS011;2331;48.806;9.140;2023-07-24T04:25:02;11.70;;;7.17;;
4636;SDS011;2331;48.806;9.140;2023-07-24T04:27:30;10.90;;;6.97;;
4636;SDS011;2331;48.806;9.140;2023-07-24T04:29:56;11.90;;;7.87;;
4636;SDS011;2331;48.806;9.140;2023-07-24T04:32:23;14.57;;;8.10;;
4636;SDS011;2331;48.806;9.140;2023-07-24T04:34:53;14.53;;;7.97;;
4636;SDS011;2331;48.806;9.140;2023-07-24T04:37:19;13.23;;;8.33;;
4636;SDS011;2331;48.806;9.140;2023-07-24T04:39:46;16.43;;;8.33;;
4636;SDS011;2331;48.806;9.140;2023-07-24T04:42:13;12.93;;;8.30;;
4636;SDS011;2331;48.806;9.140;2023-07-24T04:44:40;11.80;;;7.43;;
4636;SDS011;2331;48.806;9.140;2023-07-24T04:47:06;14.60;;;7.80;;
4636;SDS011;2331;48.806;9.140;2023-07-24T04:49:33;14.03;;;8.30;;
4636;SDS011;2331;48.806;9.140;2023-07-24T04:52:01;18.23;;;8.27;;
4636;SDS011;2331;48.806;9.140;2023-07-24T04:54:28;11.40;;;7.17;;
4636;SDS011;2331;48.806;9.140;2023-07-24T04:56:55;11.27;;;7.00;;
4636;SDS011;2331;48.806;9.140;2023-07-24T04:59:22;12.10;;;6.60;;
4636;SDS011;2331;48.806;9.140;2023-07-24T05:01:48;13.87;;;8.23;;
4636;SDS011;2331;48.806;9.140;2023-07-24T05:04:15;13.10;;;8.13;;
4636;SDS011;2331;48.806;9.140;2023-07-24T05:06:42;13.27;;;8.30;;
4636;SDS011;2331;48.806;9.140;2023-07-24T05:09:10;10.83;;;7.03;;
4636;SDS011;2331;48.806;9.140;2023-07-24T05:11:37;12.57;;;7.40;;
4636;SDS011;2331;48.806;9.140;2023-07-24T05:14:04;12.70;;;7.00;;
4636;SDS011;2331;48.806;9.140;2023-07-24T05:16:31;11.80;;;7.00;;
4636;SDS011;2331;48.806;9.140;2023-07-24T05:18:57;12.60;;;7.80;;
4636;SDS011;2331;48.806;9.140;2023-07-24T05:21:24;13.00;;;7.73;;
4636;SDS011;2331;48.806;9.140;2023-07-24T05:23:51;15.27;;;8.70;;
4636;SDS011;2331;48.806;9.140;2023-07-24T05:26:19;12.57;;;7.47;;
4636;SDS011;2331;48.806;9.140;2023-07-24T05:28:47;12.17;;;7.93;;
4636;SDS011;2331;48.806;9.140;2023-07-24T05:31:13;13.67;;;7.80;;
4636;SDS011;2331;48.806;9.140;2023-07-24T05:33:40;12.47;;;7.40;;
4636;SDS011;2331;48.806;9.140;2023-07-24T05:36:07;13.50;;;7.70;;
4636;SDS011;2331;48.806;9.140;2023-07-24T05:38:33;15.10;;;9.17;;
4636;SDS011;2331;48.806;9.140;2023-07-24T05:41:01;15.37;;;8.60;;
4636;SDS011;2331;48.806;9.140;2023-07-24T05:43:30;12.50;;;7.27;;
4636;SDS011;2331;48.806;9.140;2023-07-24T05:45:57;12.80;;;8.33;;
4636;SDS011;2331;48.806;9.140;2023-07-24T05:48:25;14.00;;;8.50;;
4636;SDS011;2331;48.806;9.140;2023-07-24T05:50:51;12.53;;;7.93;;
4636;SDS011;2331;48.806;9.140;2023-07-24T05:53:18;12.00;;;7.50;;
4636;SDS011;2331;48.806;9.140;2023-07-24T05:55:45;12.33;;;6.90;;
4636;SDS011;2331;48.806;9.140;2023-07-24T05:58:12;15.00;;;7.80;;
4636;SDS011;2331;48.806;9.140;2023-07-24T06:00:40;12.10;;;7.37;;
4636;SDS011;2331;48.806;9.140;2023-07-24T06:03:07;11.33;;;6.97;;
4636;SDS011;2331;48.806;9.140;2023-07-24T06:05:33;11.27;;;7.07;;
4636;SDS011;2331;48.806;9.140;2023-07-24T06:08:00;11.63;;;7.00;;
4636;SDS011;2331;48.806;9.140;2023-07-24T06:10:27;10.33;;;6.27;;
4636;SDS011;2331;48.806;9.140;2023-07-24T06:12:54;12.57;;;7.33;;
4636;SDS011;2331;48.806;9.140;2023-07-24T06:15:20;11.63;;;7.00;;
4636;SDS011;2331;48.806;9.140;2023-07-24T06:17:48;11.67;;;7.77;;
4636;SDS011;2331;48.806;9.140;2023-07-24T06:20:15;12.13;;;7.43;;
4636;SDS011;2331;48.806;9.140;2023-07-24T06:22:42;16.40;;;8.63;;
4636;SDS011;2331;48.806;9.140;2023-07-24T06:25:09;14.43;;;8.23;;
4636;SDS011;2331;48.806;9.140;2023-07-24T06:27:36;14.37;;;8.30;;
4636;SDS011;2331;48.806;9.140;2023-07-24T06:30:03;12.63;;;7.60;;
4636;SDS011;2331;48.806;9.140;2023-07-24T06:32:32;12.30;;;7.67;;
4636;SDS011;2331;48.806;9.140;2023-07-24T06:35:00;15.30;;;8.70;;
4636;SDS011;2331;48.806;9.140;2023-07-24T06:37:29;13.77;;;8.20;;
4636;SDS011;2331;48.806;9.140;2023-07-24T06:39:56;13.80;;;8.63;;
4636;SDS011;2331;48.806;9.140;2023-07-24T06:42:23;13.57;;;7.97;;
4636;SDS011;2331;48.806;9.140;2023-07-24T06:44:50;14.97;;;8.97;;
4636;SDS011;2331;48.806;9.140;2023-07-24T06:47:17;13.60;;;7.90;;
4636;SDS011;2331;48.806;9.140;2023-07-24T06:49:43;11.83;;;7.67;;
4636;SDS011;2331;48.806;9.140;2023-07-24T06:52:11;13.13;;;7.83;;
4636;SDS011;2331;48.806;9.140;2023-07-24T06:54:38;15.00;;;8.40;;
4636;SDS011;2331;48.806;9.140;2023-07-24T06:57:05;16.63;;;9.00;;
4636;SDS011;2331;48.806;9.140;2023-07-24T06:59:32;13.87;;;8.00;;
4636;SDS011;2331;48.806;9.140;2023-07-24T07:01:58;11.97;;;7.87;;
4636;SDS011;2331;48.806;9.140;2023-07-24T07:04:25;14.10;;;7.90;;
4636;SDS011;2331;48.806;9.140;2023-07-24T07:06:52;15.33;;;8.23;;
4636;SDS011;2331;48.806;9.140;2023-07-24T07:09:20;15.50;;;8.60;;
4636;SDS011;2331;48.806;9.140;2023-07-24T07:11:47;14.53;;;8.10;;
4636;SDS011;2331;48.806;9.140;2023-07-24T07:14:14;15.83;;;9.20;;
4636;SDS011;2331;48.806;9.140;2023-07-24T07:16:40;14.50;;;8.23;;
4636;SDS011;2331;48.806;9.140;2023-07-24T07:19:07;15.07;;;8.43;;
4636;SDS011;2331;48.806;9.140;2023-07-24T07:21:35;15.73;;;8.83;;
4636;SDS011;2331;48.806;9.140;2023-07-24T07:24:01;16.33;;;8.57;;
4636;SDS011;2331;48.806;9.140;2023-07-24T07:26:30;16.77;;;9.17;;
4636;SDS011;2331;48.806;9.140;2023-07-24T07:28:57;14.20;;;8.87;;
4636;SDS011;2331;48.806;9.140;2023-07-24T07:31:23;14.63;;;8.37;;
4636;SDS011;2331;48.806;9.140;2023-07-24T07:33:50;17.87;;;8.50;;
4636;SDS011;2331;48.806;9.140;2023-07-24T07:36:17;16.73;;;8.90;;
4636;SDS011;2331;48.806;9.140;2023-07-24T07:38:44;16.33;;;8.90;;
4636;SDS011;2331;48.806;9.140;2023-07-24T07:41:10;15.07;;;8.37;;
4636;SDS011;2331;48.806;9.140;2023-07-24T07:43:38;14.77;;;7.70;;
4636;SDS011;2331;48.806;9.140;2023-07-24T07:46:05;18.67;;;8.13;;
4636;SDS011;2331;48.806;9.140;2023-07-24T07:48:32;13.47;;;7.90;;
4636;SDS011;2331;48.806;9.140;2023-07-24T07:50:59;12.63;;;7.50;;
4636;SDS011;2331;48.806;9.140;2023-07-24T07:53:25;14.53;;;8.47;;
4636;SDS011;2331;48.806;9.140;2023-07-24T07:55:55;16.80;;;8.97;;
4636;SDS011;2331;48.806;9.140;2023-07-24T07:58:23;15.07;;;8.40;;
4636;SDS011;2331;48.806;9.140;2023-07-24T08:00:51;15.70;;;9.00;;
4636;SDS011;2331;48.806;9.140;2023-07-24T08:03:18;12.97;;;7.30;;
4636;SDS011;2331;48.806;9.140;2023-07-24T08:05:44;16.40;;;9.10;;
4636;SDS011;2331;48.806;9.140;2023-07-24T08:08:11;14.83;;;9.07;;
4636;SDS011;2331;48.806;9.140;2023-07-24T08:10:38;11.60;;;7.20;;
4636;SDS011;2331;48.806;9.140;2023-07-24T08:13:05;15.13;;;8.93;;
4636;SDS011;2331;48.806;9.140;2023-07-24T08:15:33;16.27;;;8.40;;
4636;SDS011;2331;48.806;9.140;2023-07-24T08:20:31;16.27;;;8.47;;
4636;SDS011;2331;48.806;9.140;2023-07-24T08:23:01;20.10;;;9.60;;
4636;SDS011;2331;48.806;9.140;2023-07-24T08:25:27;17.07;;;8.97;;
4636;SDS011;2331;48.806;9.140;2023-07-24T08:27:54;14.97;;;8.83;;
4636;SDS011;2331;48.806;9.140;2023-07-24T08:30:21;16.90;;;8.77;;
4636;SDS011;2331;48.806;9.140;2023-07-24T08:32:47;14.93;;;9.20;;
4636;SDS011;2331;48.806;9.140;2023-07-24T08:35:16;13.70;;;8.47;;
4636;SDS011;2331;48.806;9.140;2023-07-24T08:37:43;14.13;;;8.50;;
4636;SDS011;2331;48.806;9.140;2023-07-24T08:40:10;15.40;;;8.83;;
4636;SDS011;2331;48.806;9.140;2023-07-24T08:42:38;16.83;;;8.93;;
4636;SDS011;2331;48.806;9.140;2023-07-24T08:45:07;14.00;;;8.17;;
4636;SDS011;2331;48.806;9.140;2023-07-24T08:47:37;16.00;;;8.83;;
4636;SDS011;2331;48.806;9.140;2023-07-24T08:50:06;15.50;;;8.93;;
4636;SDS011;2331;48.806;9.140;2023-07-24T08:52:37;17.00;;;8.80;;
4636;SDS011;2331;48.806;9.140;2023-07-24T08:55:05;15.43;;;8.90;;
4636;SDS011;2331;48.806;9.140;2023-07-24T08:57:32;13.50;;;8.60;;
4636;SDS011;2331;48.806;9.140;2023-07-24T08:59:59;14.57;;;8.80;;
4636;SDS011;2331;48.806;9.140;2023-07-24T09:02:29;14.63;;;9.10;;
4636;SDS011;2331;48.806;9.140;2023-07-24T09:04:56;18.17;;;8.77;;
4636;SDS011;2331;48.806;9.140;2023-07-24T09:07:23;13.60;;;8.30;;
4636;SDS011;2331;48.806;9.140;2023-07-24T09:09:51;15.73;;;9.60;;
4636;SDS011;2331;48.806;9.140;2023-07-24T09:12:17;13.17;;;8.10;;
4636;SDS011;2331;48.806;9.140;2023-07-24T09:14:44;14.27;;;8.40;;
4636;SDS011;2331;48.806;9.140;2023-07-24T09:17:11;14.13;;;7.97;;
4636;SDS011;2331;48.806;9.140;2023-07-24T09:19:38;11.93;;;7.40;;
4636;SDS011;2331;48.806;9.140;2023-07-24T09:22:08;12.80;;;7.80;;
4636;SDS011;2331;48.806;9.140;2023-07-24T09:24:37;13.87;;;7.60;;
4636;SDS011;2331;48.806;9.140;2023-07-24T09:27:15;11.50;;;7.10;;
4636;SDS011;2331;48.806;9.140;2023-07-24T09:29:42;12.13;;;8.30;;
4636;SDS011;2331;48.806;9.140;2023-07-24T09:32:17;12.37;;;7.50;;
4636;SDS011;2331;48.806;9.140;2023-07-24T09:34:45;11.47;;;7.03;;
4636;SDS011;2331;48.806;9.140;2023-07-24T09:37:22;13.50;;;7.40;;
4636;SDS011;2331;48.806;9.140;2023-07-24T09:39:52;11.60;;;6.93;;
4636;SDS011;2331;48.806;9.140;2023-07-24T09:42:28;12.20;;;7.33;;
4636;SDS011;2331;48.806;9.140;2023-07-24T09:44:55;12.20;;;7.63;;
4636;SDS011;2331;48.806;9.140;2023-07-24T09:47:22;11.97;;;7.30;;
4636;SDS011;2331;48.806;9.140;2023-07-24T09:49:48;11.60;;;7.23;;
4636;SDS011;2331;48.806;9.140;2023-07-24T09:52:17;11.63;;;7.27;;
4636;SDS011;2331;48.806;9.140;2023-07-24T09:54:47;12.90;;;6.70;;
4636;SDS011;2331;48.806;9.140;2023-07-24T09:57:21;12.60;;;7.37;;
4636;SDS011;2331;48.806;9.140;2023-07-24T09:59:51;12.03;;;7.50;;
4636;SDS011;2331;48.806;9.140;2023-07-24T10:02:19;10.70;;;6.33;;
4636;SDS011;2331;48.806;9.140;2023-07-24T10:04:47;10.60;;;6.53;;
4636;SDS011;2331;48.806;9.140;2023-07-24T10:07:14;13.70;;;7.07;;
4636;SDS011;2331;48.806;9.140;2023-07-24T10:09:42;10.70;;;6.60;;
4636;SDS011;2331;48.806;9.140;2023-07-24T10:12:09;9.67;;;5.83;;
4636;SDS011;2331;48.806;9.140;2023-07-24T10:14:36;10.73;;;5.70;;
4636;SDS011;2331;48.806;9.140;2023-07-24T10:17:05;9.60;;;6.50;;
4636;SDS011;2331;48.806;9.140;2023-07-24T10:19:35;10.60;;;5.47;;
4636;SDS011;2331;48.806;9.140;2023-07-24T10:22:03;10.63;;;6.20;;
4636;SDS011;2331;48.806;9.140;2023-07-24T10:24:30;12.10;;;6.30;;
4636;SDS011;2331;48.806;9.140;2023-07-24T10:26:59;13.87;;;6.50;;
4636;SDS011;2331;48.806;9.140;2023-07-24T10:29:26;11.43;;;6.10;;
4636;SDS011;2331;48.806;9.140;2023-07-24T10:31:53;13.13;;;6.77;;
4636;SDS011;2331;48.806;9.140;2023-07-24T10:34:21;12.97;;;6.77;;
4636;SDS011;2331;48.806;9.140;2023-07-24T10:36:48;10.83;;;5.90;;
4636;SDS011;2331;48.806;9.140;2023-07-24T10:39:14;12.80;;;7.30;;
4636;SDS011;2331;48.806;9.140;2023-07-24T10:41:43;12.50;;;6.70;;
4636;SDS011;2331;48.806;9.140;2023-07-24T10:44:11;10.03;;;6.10;;
4636;SDS011;2331;48.806;9.140;2023-07-24T10:46:38;12.13;;;6.10;;
4636;SDS011;2331;48.806;9.140;2023-07-24T10:49:07;12.40;;;6.23;;
4636;SDS011;2331;48.806;9.140;2023-07-24T10:51:35;11.37;;;6.27;;
4636;SDS011;2331;48.806;9.140;2023-07-24T10:54:03;12.33;;;6.57;;
4636;SDS011;2331;48.806;9.140;2023-07-24T10:56:30;12.40;;;6.17;;
4636;SDS011;2331;48.806;9.140;2023-07-24T10:59:01;13.30;;;6.80;;
4636;SDS011;2331;48.806;9.140;2023-07-24T11:01:30;21.33;;;5.67;;
4636;SDS011;2331;48.806;9.140;2023-07-24T11:03:57;11.20;;;7.17;;
4636;SDS011;2331;48.806;9.140;2023-07-24T11:06:24;11.60;;;6.57;;
4636;SDS011;2331;48.806;9.140;2023-07-24T11:08:53;12.20;;;6.70;;
4636;SDS011;2331;48.806;9.140;2023-07-24T11:11:21;12.97;;;6.63;;
4636;SDS011;2331;48.806;9.140;2023-07-24T11:13:48;13.80;;;6.50;;
4636;SDS011;2331;48.806;9.140;2023-07-24T11:16:15;11.67;;;7.00;;
4636;SDS011;2331;48.806;9.140;2023-07-24T11:18:45;11.60;;;6.77;;
4636;SDS011;2331;48.806;9.140;2023-07-24T11:21:13;12.70;;;6.30;;
4636;SDS011;2331;48.806;9.140;2023-07-24T11:23:44;10.57;;;6.40;;
4636;SDS011;2331;48.806;9.140;2023-07-24T11:26:13;12.80;;;7.10;;
4636;SDS011;2331;48.806;9.140;2023-07-24T11:28:40;13.03;;;6.90;;
4636;SDS011;2331;48.806;9.140;2023-07-24T11:31:07;12.53;;;7.20;;
4636;SDS011;2331;48.806;9.140;2023-07-24T11:33:34;12.47;;;7.40;;
4636;SDS011;2331;48.806;9.140;2023-07-24T11:36:01;12.43;;;6.30;;
4636;SDS011;2331;48.806;9.140;2023-07-24T11:38:28;13.87;;;7.40;;
4636;SDS011;2331;48.806;9.140;2023-07-24T11:40:55;9.83;;;6.40;;
4636;SDS011;2331;48.806;9.140;2023-07-24T11:43:24;12.80;;;7.20;;
4636;SDS011;2331;48.806;9.140;2023-07-24T11:45:51;16.13;;;7.70;;
4636;SDS011;2331;48.806;9.140;2023-07-24T11:48:20;12.03;;;6.70;;
4636;SDS011;2331;48.806;9.140;2023-07-24T11:50:48;13.30;;;7.63;;
4636;SDS011;2331;48.806;9.140;2023-07-24T11:53:20;10.53;;;6.50;;
4636;SDS011;2331;48.806;9.140;2023-07-24T11:55:48;13.47;;;6.50;;
4636;SDS011;2331;48.806;9.140;2023-07-24T11:58:15;9.60;;;6.37;;
4636;SDS011;2331;48.806;9.140;2023-07-24T12:00:44;12.27;;;7.20;;
4636;SDS011;2331;48.806;9.140;2023-07-24T12:03:12;12.53;;;7.30;;
4636;SDS011;2331;48.806;9.140;2023-07-24T12:05:39;14.57;;;8.03;;
4636;SDS011;2331;48.806;9.140;2023-07-24T12:08:06;11.67;;;6.67;;
4636;SDS011;2331;48.806;9.140;2023-07-24T12:10:35;11.40;;;7.13;;
4636;SDS011;2331;48.806;9.140;2023-07-24T12:13:02;10.63;;;6.83;;
4636;SDS011;2331;48.806;9.140;2023-07-24T12:15:29;13.87;;;6.90;;
4636;SDS011;2331;48.806;9.140;2023-07-24T12:17:57;10.93;;;6.57;;
4636;SDS011;2331;48.806;9.140;2023-07-24T12:20:24;9.27;;;5.80;;
4636;SDS011;2331;48.806;9.140;2023-07-24T12:22:51;12.00;;;6.33;;
4636;SDS011;2331;48.806;9.140;2023-07-24T12:25:18;9.57;;;5.93;;
4636;SDS011;2331;48.806;9.140;2023-07-24T12:27:45;14.10;;;6.70;;
4636;SDS011;2331;48.806;9.140;2023-07-24T12:30:12;11.80;;;6.43;;
4636;SDS011;2331;48.806;9.140;2023-07-24T12:32:39;11.77;;;6.93;;
4636;SDS011;2331;48.806;9.140;2023-07-24T12:35:10;11.03;;;6.30;;
4636;SDS011;2331;48.806;9.140;2023-07-24T12:37:37;10.50;;;6.07;;
4636;SDS011;2331;48.806;9.140;2023-07-24T12:40:05;8.50;;;5.40;;
4636;SDS011;2331;48.806;9.140;2023-07-24T12:42:33;8.40;;;5.37;;
4636;SDS011;2331;48.806;9.140;2023-07-24T12:44:59;10.90;;;6.50;;
4636;SDS011;2331;48.806;9.140;2023-07-24T12:47:27;10.27;;;6.30;;
4636;SDS011;2331;48.806;9.140;2023-07-24T12:49:54;11.90;;;6.20;;
4636;SDS011;2331;48.806;9.140;2023-07-24T12:52:24;9.87;;;5.97;;
4636;SDS011;2331;48.806;9.140;2023-07-24T12:54:50;9.40;;;5.60;;
4636;SDS011;2331;48.806;9.140;2023-07-24T12:57:17;9.03;;;5.73;;
4636;SDS011;2331;48.806;9.140;2023-07-24T12:59:44;10.40;;;6.27;;
4636;SDS011;2331;48.806;9.140;2023-07-24T13:02:10;11.47;;;6.77;;
4636;SDS011;2331;48.806;9.140;2023-07-24T13:04:37;8.47;;;5.80;;
4636;SDS011;2331;48.806;9.140;2023-07-24T13:07:04;9.63;;;5.73;;
4636;SDS011;2331;48.806;9.140;2023-07-24T13:09:33;11.97;;;6.77;;
4636;SDS011;2331;48.806;9.140;2023-07-24T13:11:59;8.97;;;5.67;;
4636;SDS011;2331;48.806;9.140;2023-07-24T13:14:26;10.27;;;7.00;;
4636;SDS011;2331;48.806;9.140;2023-07-24T13:16:53;15.43;;;6.73;;
4636;SDS011;2331;48.806;9.140;2023-07-24T13:19:20;9.77;;;6.73;;
4636;SDS011;2331;48.806;9.140;2023-07-24T13:21:46;9.70;;;5.63;;
4636;SDS011;2331;48.806;9.140;2023-07-24T13:24:13;9.17;;;5.63;;
4636;SDS011;2331;48.806;9.140;2023-07-24T13:26:41;10.33;;;6.43;;
4636;SDS011;2331;48.806;9.140;2023-07-24T13:29:08;11.23;;;6.20;;
4636;SDS011;2331;48.806;9.140;2023-07-24T13:31:35;9.03;;;6.13;;
4636;SDS011;2331;48.806;9.140;2023-07-24T13:34:02;8.33;;;5.90;;
4636;SDS011;2331;48.806;9.140;2023-07-24T13:36:29;11.70;;;6.53;;
4636;SDS011;2331;48.806;9.140;2023-07-24T13:38:55;9.07;;;5.33;;
4636;SDS011;2331;48.806;9.140;2023-07-24T13:41:22;12.57;;;6.20;;
4636;SDS011;2331;48.806;9.140;2023-07-24T13:43:50;9.70;;;5.77;;
4636;SDS011;2331;48.806;9.140;2023-07-24T13:46:17;8.90;;;5.60;;
4636;SDS011;2331;48.806;9.140;2023-07-24T13:48:44;9.23;;;5.63;;
4636;SDS011;2331;48.806;9.140;2023-07-24T13:51:10;9.40;;;6.07;;
4636;SDS011;2331;48.806;9.140;2023-07-24T13:53:37;11.60;;;5.40;;
4636;SDS011;2331;48.806;9.140;2023-07-24T13:56:04;9.57;;;5.30;;
4636;SDS011;2331;48.806;9.140;2023-07-24T13:58:32;8.37;;;5.30;;
4636;SDS011;2331;48.806;9.140;2023-07-24T14:01:00;10.03;;;5.87;;
4636;SDS011;2331;48.806;9.140;2023-07-24T14:03:27;8.30;;;4.90;;
4636;SDS011;2331;48.806;9.140;2023-07-24T14:05:54;11.33;;;6.00;;
4636;SDS011;2331;48.806;9.140;2023-07-24T14:08:21;8.20;;;5.00;;
4636;SDS011;2331;48.806;9.140;2023-07-24T14:10:48;7.90;;;4.70;;
4636;SDS011;2331;48.806;9.140;2023-07-24T14:13:15;7.47;;;4.80;;
4636;SDS011;2331;48.806;9.140;2023-07-24T14:15:42;9.00;;;5.60;;
4636;SDS011;2331;48.806;9.140;2023-07-24T14:18:10;8.30;;;4.90;;
4636;SDS011;2331;48.806;9.140;2023-07-24T14:20:36;8.90;;;4.93;;
4636;SDS011;2331;48.806;9.140;2023-07-24T14:23:05;8.00;;;4.50;;
4636;SDS011;2331;48.806;9.140;2023-07-24T14:25:32;7.70;;;4.73;;
4636;SDS011;2331;48.806;9.140;2023-07-24T14:27:58;7.33;;;4.20;;
4636;SDS011;2331;48.806;9.140;2023-07-24T14:30:25;7.77;;;4.80;;
4636;SDS011;2331;48.806;9.140;2023-07-24T14:32:52;6.60;;;3.83;;
4636;SDS011;2331;48.806;9.140;2023-07-24T14:35:20;7.80;;;4.80;;
4636;SDS011;2331;48.806;9.140;2023-07-24T14:37:47;8.20;;;4.00;;
4636;SDS011;2331;48.806;9.140;2023-07-24T14:40:13;7.80;;;4.67;;
4636;SDS011;2331;48.806;9.140;2023-07-24T14:42:40;7.50;;;4.53;;
4636;SDS011;2331;48.806;9.140;2023-07-24T14:45:07;7.57;;;4.50;;
4636;SDS011;2331;48.806;9.140;2023-07-24T14:47:34;6.57;;;4.17;;
4636;SDS011;2331;48.806;9.140;2023-07-24T14:50:01;6.30;;;4.17;;
4636;SDS011;2331;48.806;9.140;2023-07-24T14:52:29;6.87;;;4.20;;
4636;SDS011;2331;48.806;9.140;2023-07-24T14:54:56;8.90;;;4.20;;
4636;SDS011;2331;48.806;9.140;2023-07-24T14:57:22;8.20;;;4.30;;
4636;SDS011;2331;48.806;9.140;2023-07-24T14:59:50;7.03;;;3.90;;
4636;SDS011;2331;48.806;9.140;2023-07-24T15:02:16;7.03;;;4.60;;
4636;SDS011;2331;48.806;9.140;2023-07-24T15:04:43;6.57;;;4.23;;
4636;SDS011;2331;48.806;9.140;2023-07-24T15:07:10;7.40;;;4.63;;